Nova Friburgo, Brazil
Current Conditions -  °F | °C
As of 11:00 AM on Wednesday 26 Nov 2014 (Local Time) from SBES Reporting Station
Broken Clouds Broken Clouds  
Wind Chill: 86°   Ceiling: 10000
Heat Index: 92°   Visibility: 6mi
Dew Point: 72°   Wind: 14mph
Humidity: 62%   Direction: 40°NE
Pressure: 29.8"   Gusts: NA
Location:  22.26°S, 42.54°W
Report Text: SBES 261300Z 04012KT 9999 FEW020 BKN100 30/22 Q1009
Loading
Personal Weather Stations






























Interactive Weather Map New forecast layout! Learn more

10-Day Weather Forecast

Advertisements
Track Severe Weather on mobile